Bowling, United Kingdom
Current Conditions -  °F | °C
As of 8:50 PM on Friday 31 Oct 2014 (Local Time) from EGPF Reporting Station
Light Rain Light Rain  
Wind Chill: 55°   Ceiling: 2800
Heat Index: 55°   Visibility: 4mi
Dew Point: 55°   Wind: 3mph
Humidity: 100%   Direction: 250°WSW
Pressure: 29.59"   Gusts: NA
Location:  55.93°N, 4.48°W
Report Text: EGPF 312050Z AUTO 25003KT 6000 -RA FEW007/// BKN028/// //////CB 13/13 Q1002 RERA
Loading
Personal Weather Stations






























Interactive Weather Map
Tropical Storm Tracking
New forecast layout! Learn more

10-Day Weather Forecast

Advertisements
Track Severe Weather on mobile